KVNYKHND

Guest
Details From KVNY - Van Nuys
To KHND - Henderson Executive
Flight Number -
Tags generated
Created
Modified
Stats Distance 198 nm / 366 km
Max Altitude 19,900 ft / 6,066 m
Waypoints 3
Social Downloads 0
Likes 0
Share VATSIM

Download

Looking for another format? Having issues loading an existing format? Contact us
Advertisement - Login to hide

Notes

Basic altitude profile: - Ascent Rate: 900ft/min - Ascent Speed: 85kts - Cruise Altitude: 15000ft - Cruise Speed: 125kts - Descent Rate: 1000ft/min - Descent Speed: 100kts Options: - Use NATs: no - Use PACOTS: no - Use low airways: yes - Use high airways: no

Route

KVNY DAG KHND

ID Type Via Altitude Latitude Longitude Leg Dist Tot Dist Heading (true) Name
O KVNY APT - 0 ft / 0 m 34.21072˚ -118.48984˚ - 0 nm - Van Nuys
DAG VOR - 19,900 ft / 6,066 m 34.96244˚ -116.57817˚ 104 nm 104 nm 64° / 65° DAGGETT VORTAC
O KHND APT - 0 ft / 0 m 35.97299˚ -115.13423˚ 93 nm 197 nm 49° / 50° Henderson Executive

Altitude Profile

Advertisement - Login to hide

Weather


0- 5 10 15 20 25 30 35+ Temperature / ° C

Clouds and Precipitation
Forecast for 2017-12-12 00:00 UTC. Updated 28 minutes ago

Ground ~20,000 ft ~40,000 ft Winds

KVNY

Details ICAO KVNY (VNY)
Name Van Nuys
Region United States
Timezone America/Los_Angeles (UTC-8.0)
Stats Elevation 802 ft / 244 m (AMSL)
Location 34.210723° -118.489841°
Runways 2
Magnetic Variation 12.075° E

METAR

KVNY 111851Z 35009KT 10SM CLR 25/M22 A3022 RMK AO2 SLP228 T02501217

Decode

TAF

KVNY 111734Z 1118/1218 32006KT P6SM SKC

Decode

Departure Runways

ID Width Length Bearing (true) Bearing (mag) Surface Threshold Offset Overrun Length
16L 75 ft / 23 m 4,021 ft / 1,226 m 175.53° 163.45° Asphalt 1,430 ft / 436 m 0 ft / 0 m
16R 151 ft / 46 m 8,022 ft / 2,445 m 175.54° 163.46° Asphalt 1,430 ft / 436 m 151 ft / 46 m
34L 151 ft / 46 m 8,022 ft / 2,445 m 355.54° 343.46° Asphalt 0 ft / 0 m 151 ft / 46 m
34R 75 ft / 23 m 4,021 ft / 1,226 m 355.53° 343.45° Asphalt 0 ft / 0 m 0 ft / 0 m

KHND

Details ICAO KHND (HSH)
Name Henderson Executive
Region United States
Timezone America/Los_Angeles (UTC-8.0)
Stats Elevation 2,492 ft / 760 m (AMSL)
Location 35.972988° -115.134228°
Runways 2
Magnetic Variation 11.631° E

METAR

KHND 111856Z 04007KT 10SM CLR 14/M19 A3042 RMK AO2 SLP302 T01441189 $

Decode

TAF

TAF KHND 111720Z 1118/1218 02005KT P6SM SCT250 FM120100 17007KT P6SM FEW250 FM121000 VRB05KT P6SM SKC

Decode

Destination Runways

ID Width Length Bearing (true) Bearing (mag) Surface Threshold Offset Overrun Length
17L 75 ft / 23 m 5,012 ft / 1,528 m 180.58° 168.95° Asphalt 0 ft / 0 m 151 ft / 46 m
17R 98 ft / 30 m 6,515 ft / 1,986 m 180.57° 168.94° Asphalt 0 ft / 0 m 200 ft / 61 m
35L 98 ft / 30 m 6,515 ft / 1,986 m 0.57° 348.94° Asphalt 0 ft / 0 m 200 ft / 61 m
35R 75 ft / 23 m 5,012 ft / 1,528 m 0.58° 348.95° Asphalt 0 ft / 0 m 151 ft / 46 m

Popular Alternatives